Time;durP1;ratioP1;P1;durP2;ratioP2;P2;SDS_P1;SDS_P2;PMS_P1;PMS_P2;Temp;Humidity;BMP_temperature;BMP_pressure;BME280_temperature;BME280_humidity;BME280_pressure;Samples;Min_cycle;Max_cycle;Signal;HPM_P1;HPM_P2
2024/01/18 00:02:39;;;;;;;51.83;29.50;;;;;-1.00;98791.00;;;;9849554;30;20351;-89
2024/01/18 00:07:40;;;;;;;57.13;30.60;;;;;-1.00;98781.00;;;;9867985;29;20270;-89
2024/01/18 00:12:42;;;;;;;48.70;30.07;;;;;-1.00;98802.00;;;;9873025;29;20239;-90
2024/01/18 00:17:43;;;;;;;46.73;29.33;;;;;-1.10;98809.00;;;;9861802;29;20244;-87
2024/01/18 00:22:44;;;;;;;47.70;29.10;;;;;-1.10;98807.00;;;;9840236;30;20286;-85
2024/01/18 00:27:46;;;;;;;43.40;28.23;;;;;-1.10;98797.00;;;;9827468;29;20256;-85
2024/01/18 00:32:47;;;;;;;44.93;28.70;;;;;-1.10;98802.00;;;;9824368;29;20235;-84
2024/01/18 00:37:48;;;;;;;50.13;28.27;;;;;-1.00;98807.00;;;;9818038;29;20232;-85
2024/01/18 00:42:49;;;;;;;45.27;27.80;;;;;-1.00;98823.00;;;;9835787;29;20232;-85
2024/01/18 00:47:50;;;;;;;44.83;27.67;;;;;-1.00;98829.00;;;;9833298;29;20239;-84
2024/01/18 00:52:51;;;;;;;44.23;26.83;;;;;-1.10;98841.00;;;;9825511;29;20242;-84
2024/01/18 00:57:52;;;;;;;44.57;29.20;;;;;-1.10;98841.00;;;;9825359;29;20322;-85
2024/01/18 01:02:54;;;;;;;48.13;27.80;;;;;-1.10;98850.00;;;;9821592;29;20314;-85
2024/01/18 01:07:55;;;;;;;45.50;27.50;;;;;-1.00;98857.00;;;;9829042;29;20789;-84
2024/01/18 01:12:56;;;;;;;47.27;27.40;;;;;-1.00;98867.00;;;;9816695;29;20231;-85
2024/01/18 01:17:57;;;;;;;43.07;25.37;;;;;-1.00;98856.00;;;;9828631;29;20232;-85
2024/01/18 01:22:58;;;;;;;45.90;26.67;;;;;-1.10;98846.00;;;;9814278;29;20642;-85
2024/01/18 01:27:59;;;;;;;46.63;27.37;;;;;-1.10;98854.00;;;;9815832;30;20232;-85
2024/01/18 01:33:01;;;;;;;39.50;24.63;;;;;-1.10;98863.00;;;;9820811;30;20315;-83
2024/01/18 01:38:03;;;;;;;43.87;25.73;;;;;-1.10;98873.00;;;;9804022;29;20238;-82
2024/01/18 01:43:04;;;;;;;43.00;25.93;;;;;-1.10;98864.00;;;;9801898;29;20260;-82
2024/01/18 01:48:07;;;;;;;42.93;25.90;;;;;-1.10;98867.00;;;;9820423;29;20240;-83
2024/01/18 01:53:09;;;;;;;40.37;24.47;;;;;-1.10;98882.00;;;;9816347;29;20235;-82
2024/01/18 01:58:12;;;;;;;39.57;23.23;;;;;-1.20;98890.00;;;;9833687;29;20240;-81
2024/01/18 02:03:14;;;;;;;37.50;23.00;;;;;-1.20;98900.00;;;;9804715;29;20276;-81
2024/01/18 02:08:15;;;;;;;38.83;23.53;;;;;-1.20;98903.00;;;;9817668;29;20247;-82
2024/01/18 02:13:17;;;;;;;38.80;23.50;;;;;-1.20;98903.00;;;;9795743;29;20235;-84
2024/01/18 02:18:18;;;;;;;39.63;23.20;;;;;-1.30;98898.00;;;;9810990;29;20263;-81
2024/01/18 02:23:20;;;;;;;33.50;22.10;;;;;-1.30;98885.00;;;;9816629;29;20771;-81
2024/01/18 02:28:21;;;;;;;38.33;21.57;;;;;-1.30;98887.00;;;;9804992;29;20228;-82
2024/01/18 02:33:22;;;;;;;37.50;21.30;;;;;-1.40;98884.00;;;;9839880;30;20260;-82
2024/01/18 02:38:24;;;;;;;33.67;20.83;;;;;-1.40;98891.00;;;;9842429;29;20887;-82
2024/01/18 02:43:25;;;;;;;37.03;21.97;;;;;-1.50;98899.00;;;;9830737;29;20244;-84
2024/01/18 02:48:27;;;;;;;37.53;22.40;;;;;-1.50;98904.00;;;;9839247;29;20262;-85
2024/01/18 02:53:28;;;;;;;32.67;20.67;;;;;-1.50;98916.00;;;;9826984;29;20234;-84
2024/01/18 02:58:29;;;;;;;38.00;21.17;;;;;-1.50;98917.00;;;;9811613;29;20273;-85
2024/01/18 03:03:30;;;;;;;32.20;19.77;;;;;-1.50;98926.00;;;;9822610;29;20647;-85
2024/01/18 03:08:31;;;;;;;35.70;20.90;;;;;-1.50;98916.00;;;;9819923;29;20226;-85
2024/01/18 03:13:32;;;;;;;33.60;21.37;;;;;-1.60;98916.00;;;;9803924;29;20307;-84
2024/01/18 03:18:34;;;;;;;35.57;21.40;;;;;-1.60;98930.00;;;;9817568;29;20260;-84
2024/01/18 03:23:35;;;;;;;37.03;21.30;;;;;-1.60;98942.00;;;;9817011;29;20940;-84
2024/01/18 03:28:37;;;;;;;38.50;22.13;;;;;-1.70;98927.00;;;;9853932;29;21251;-85
2024/01/18 03:33:38;;;;;;;35.53;22.17;;;;;-1.70;98929.00;;;;9821290;29;20259;-85
2024/01/18 03:38:39;;;;;;;33.77;21.60;;;;;-1.70;98939.00;;;;9821443;30;20228;-84
2024/01/18 03:43:40;;;;;;;34.17;19.37;;;;;-1.70;98949.00;;;;9823660;29;20259;-85
2024/01/18 03:48:42;;;;;;;39.33;20.63;;;;;-1.70;98956.00;;;;9822776;29;20236;-85
2024/01/18 03:53:43;;;;;;;36.70;22.90;;;;;-1.80;98958.00;;;;9819263;29;20274;-82
2024/01/18 03:58:44;;;;;;;35.70;22.70;;;;;-1.80;98963.00;;;;9828754;29;20730;-79
2024/01/18 04:03:48;;;;;;;41.10;22.00;;;;;-1.70;98957.00;;;;9804867;29;20682;-82
2024/01/18 04:08:49;;;;;;;43.20;24.50;;;;;-1.80;98962.00;;;;9808237;29;20236;-80
2024/01/18 04:13:50;;;;;;;38.33;23.20;;;;;-1.80;98964.00;;;;9834495;29;20240;-79
2024/01/18 04:18:52;;;;;;;42.13;23.40;;;;;-1.90;98970.00;;;;9830289;29;20232;-79
2024/01/18 04:23:55;;;;;;;42.50;24.13;;;;;-1.90;98980.00;;;;9822864;29;20231;-82
2024/01/18 04:28:57;;;;;;;40.57;22.80;;;;;-1.90;98981.00;;;;9808466;29;20236;-84
2024/01/18 04:33:58;;;;;;;39.27;21.50;;;;;-1.90;98994.00;;;;9836448;29;20316;-80
2024/01/18 04:38:59;;;;;;;37.47;22.63;;;;;-2.00;98999.00;;;;9818581;29;20252;-79
2024/01/18 04:44:01;;;;;;;42.00;22.80;;;;;-2.00;99009.00;;;;9818487;29;20310;-80
2024/01/18 04:49:02;;;;;;;39.40;23.37;;;;;-2.00;99014.00;;;;9820692;29;20244;-82
2024/01/18 04:54:04;;;;;;;34.47;20.87;;;;;-2.00;99027.00;;;;9825559;29;20316;-82
2024/01/18 04:59:05;;;;;;;33.77;21.60;;;;;-2.00;99031.00;;;;9813186;29;20240;-81
2024/01/18 05:04:07;;;;;;;41.73;22.73;;;;;-2.10;99044.00;;;;9831894;29;20227;-86
2024/01/18 05:09:09;;;;;;;38.53;21.37;;;;;-2.10;99025.00;;;;9835289;29;20250;-86
2024/01/18 05:14:11;;;;;;;31.00;20.73;;;;;-2.20;99034.00;;;;9820258;29;20231;-86
2024/01/18 05:19:12;;;;;;;34.20;19.20;;;;;-2.20;99056.00;;;;9841590;29;20232;-86
2024/01/18 05:24:13;;;;;;;27.73;18.83;;;;;-2.40;99059.00;;;;9826286;29;20239;-86
2024/01/18 05:29:14;;;;;;;34.37;20.03;;;;;-2.60;99066.00;;;;9822642;30;20574;-86
2024/01/18 05:34:15;;;;;;;35.67;20.83;;;;;-2.80;99065.00;;;;9839068;29;20307;-86
2024/01/18 05:39:17;;;;;;;34.30;19.27;;;;;-2.90;99063.00;;;;9827797;29;20239;-87
2024/01/18 05:44:18;;;;;;;31.73;18.77;;;;;-3.10;99065.00;;;;9823220;30;20236;-86
2024/01/18 05:49:19;;;;;;;31.17;18.33;;;;;-3.30;99073.00;;;;9842808;29;20239;-86
2024/01/18 05:54:20;;;;;;;35.57;18.47;;;;;-3.50;99074.00;;;;9807405;29;20236;-87
2024/01/18 05:59:22;;;;;;;31.97;19.30;;;;;-3.60;99084.00;;;;9827772;29;20224;-85
2024/01/18 06:04:26;;;;;;;42.80;22.60;;;;;-3.70;99096.00;;;;9833306;29;20239;-86
2024/01/18 06:09:27;;;;;;;42.43;20.53;;;;;-3.80;99108.00;;;;9837872;30;20906;-86
2024/01/18 06:14:28;;;;;;;32.00;19.30;;;;;-4.00;99112.00;;;;9807847;29;20362;-83
2024/01/18 06:19:29;;;;;;;38.23;20.40;;;;;-4.10;99125.00;;;;9807395;29;20235;-84
2024/01/18 06:24:31;;;;;;;40.57;21.37;;;;;-4.20;99133.00;;;;9823547;29;20284;-83
2024/01/18 06:29:32;;;;;;;35.97;19.30;;;;;-4.30;99134.00;;;;9809803;29;20266;-83
2024/01/18 06:34:33;;;;;;;32.00;19.17;;;;;-4.40;99141.00;;;;9841043;29;20232;-83
2024/01/18 06:39:35;;;;;;;40.80;20.83;;;;;-4.50;99151.00;;;;9804600;29;20908;-83
2024/01/18 06:44:36;;;;;;;33.70;19.07;;;;;-4.60;99156.00;;;;9836501;29;20244;-83
2024/01/18 06:49:37;;;;;;;46.77;22.97;;;;;-4.60;99164.00;;;;9823680;29;20230;-84
2024/01/18 06:54:38;;;;;;;37.03;19.93;;;;;-4.70;99177.00;;;;9824187;30;20234;-83
2024/01/18 06:59:47;;;;;;;38.20;21.57;;;;;-4.70;99172.00;;;;9805960;29;20324;-83
2024/01/18 07:04:49;;;;;;;39.53;21.33;;;;;-4.80;99177.00;;;;9829525;29;20235;-83
2024/01/18 07:09:50;;;;;;;38.17;21.10;;;;;-4.80;99191.00;;;;9825650;30;20243;-83
2024/01/18 07:14:51;;;;;;;34.97;19.97;;;;;-4.80;99198.00;;;;9813254;29;20223;-83
2024/01/18 07:19:56;;;;;;;40.13;22.23;;;;;-5.00;99195.00;;;;9821885;29;20265;-84
2024/01/18 07:24:57;;;;;;;35.80;21.23;;;;;-5.00;99210.00;;;;9827255;29;21560;-83
2024/01/18 07:29:58;;;;;;;40.80;21.87;;;;;-5.10;99222.00;;;;9813279;29;20236;-84
2024/01/18 07:35:00;;;;;;;42.40;22.57;;;;;-5.20;99235.00;;;;9813386;29;20289;-83
2024/01/18 07:40:02;;;;;;;40.80;20.57;;;;;-5.20;99239.00;;;;9804899;30;20276;-83
2024/01/18 07:45:04;;;;;;;47.23;21.23;;;;;-5.20;99251.00;;;;9806955;29;20408;-84
2024/01/18 07:50:06;;;;;;;40.37;21.13;;;;;-5.30;99248.00;;;;9800800;29;20231;-84
2024/01/18 07:55:25;;;;;;;38.93;22.50;;;;;-5.20;99251.00;;;;9844791;29;20775;-83
2024/01/18 08:00:27;;;;;;;48.97;22.80;;;;;-5.10;99259.00;;;;9830655;29;20918;-82
2024/01/18 08:05:28;;;;;;;52.93;26.07;;;;;-5.10;99271.00;;;;9822452;29;20239;-82
2024/01/18 08:10:30;;;;;;;48.03;23.23;;;;;-5.00;99275.00;;;;9804039;29;20313;-82
2024/01/18 08:15:31;;;;;;;49.80;27.57;;;;;-4.90;99295.00;;;;9808308;29;20340;-82
2024/01/18 08:20:32;;;;;;;42.10;24.07;;;;;-4.70;99306.00;;;;9823442;29;20615;-83
2024/01/18 08:25:33;;;;;;;47.63;23.60;;;;;-4.50;99317.00;;;;9825780;29;20710;-83
2024/01/18 08:30:34;;;;;;;42.47;22.33;;;;;-4.30;99331.00;;;;9825995;29;20232;-87
2024/01/18 08:35:35;;;;;;;50.03;26.37;;;;;-4.10;99347.00;;;;9812166;29;20315;-86
2024/01/18 08:40:36;;;;;;;72.07;33.33;;;;;-3.90;99361.00;;;;9837571;29;20224;-86
2024/01/18 08:45:41;;;;;;;89.97;42.33;;;;;-3.60;99390.00;;;;9825202;29;20281;-86
2024/01/18 08:50:42;;;;;;;53.47;29.40;;;;;-3.30;99393.00;;;;9829566;29;20588;-87
2024/01/18 08:55:44;;;;;;;51.20;25.93;;;;;-2.90;99407.00;;;;9802645;29;20259;-88
2024/01/18 09:00:45;;;;;;;42.37;26.47;;;;;-2.50;99429.00;;;;9828156;29;20261;-87
2024/01/18 09:05:46;;;;;;;48.47;28.20;;;;;-2.00;99442.00;;;;9819276;29;20264;-88
2024/01/18 09:10:47;;;;;;;45.53;27.37;;;;;-1.20;99456.00;;;;9819616;29;20227;-88
2024/01/18 09:15:51;;;;;;;44.00;29.10;;;;;-0.50;99467.00;;;;9842502;29;20247;-87
2024/01/18 09:20:53;;;;;;;37.67;24.90;;;;;0.10;99478.00;;;;9825863;29;20228;-89
2024/01/18 09:25:54;;;;;;;42.23;23.67;;;;;0.60;99493.00;;;;9838818;29;20227;-89
2024/01/18 09:30:57;;;;;;;39.77;24.73;;;;;1.10;99509.00;;;;9845721;29;20262;-88
2024/01/18 09:35:58;;;;;;;31.20;22.03;;;;;1.40;99516.00;;;;9832009;29;20239;-90
2024/01/18 09:41:10;;;;;;;29.10;17.77;;;;;1.30;99532.00;;;;9823290;29;20219;-87
2024/01/18 09:46:11;;;;;;;21.87;14.13;;;;;1.50;99532.00;;;;9823194;29;20223;-89
2024/01/18 09:51:14;;;;;;;21.23;14.17;;;;;1.60;99538.00;;;;9840263;29;20536;-88
2024/01/18 09:56:22;;;;;;;25.23;14.00;;;;;1.90;99556.00;;;;9832477;29;20232;-87
2024/01/18 10:01:24;;;;;;;22.73;14.27;;;;;2.20;99549.00;;;;9845175;29;20239;-88
2024/01/18 10:06:26;;;;;;;26.77;15.70;;;;;2.50;99550.00;;;;9845083;29;20232;-89
2024/01/18 10:11:27;;;;;;;28.50;17.90;;;;;2.80;99564.00;;;;10618924;24;20239;-88
2024/01/18 10:16:32;;;;;;;30.87;19.00;;;;;3.20;99590.00;;;;9976564;24;20236;-88
2024/01/18 10:34:14;;;;;;;26.07;15.90;;;;;3.60;99617.00;;;;10121420;24;20236;-87
2024/01/18 10:39:19;;;;;;;31.90;14.00;;;;;3.80;99624.00;;;;9789647;29;20260;-86
2024/01/18 10:44:21;;;;;;;19.50;12.67;;;;;3.90;99639.00;;;;9792341;30;20233;-86
2024/01/18 10:49:23;;;;;;;20.83;11.97;;;;;4.00;99648.00;;;;9802285;30;20305;-87
2024/01/18 11:00:32;;;;;;;15.83;10.63;;;;;4.30;99662.00;;;;9763995;30;20523;-87
2024/01/18 11:05:33;;;;;;;11.13;8.60;;;;;4.50;99670.00;;;;9768843;30;20233;-87
2024/01/18 11:10:36;;;;;;;12.37;8.37;;;;;4.70;99669.00;;;;9769558;30;20222;-86
2024/01/18 11:15:41;;;;;;;11.37;7.70;;;;;4.60;99680.00;;;;9780633;30;20463;-86
2024/01/18 11:20:58;;;;;;;10.43;7.03;;;;;4.80;99692.00;;;;9970264;24;20311;-87
2024/01/18 11:25:59;;;;;;;10.00;7.50;;;;;5.00;99703.00;;;;9861736;29;20235;-89
2024/01/18 11:31:06;;;;;;;9.93;7.03;;;;;4.10;99711.00;;;;10882680;24;21244;31
2024/01/18 11:36:30;;;;;;;12.67;8.43;;;;;4.50;99711.00;;;;10378273;24;20439;-89
2024/01/18 11:41:32;;;;;;;11.10;7.00;;;;;5.00;99725.00;;;;9832361;29;20279;-89
2024/01/18 11:46:41;;;;;;;10.60;7.67;;;;;4.50;99730.00;;;;9815682;30;20232;-87
2024/01/18 11:51:44;;;;;;;10.77;7.20;;;;;4.40;99739.00;;;;9834234;29;20234;-87
2024/01/18 11:56:49;;;;;;;12.40;6.77;;;;;3.90;99750.00;;;;9844760;29;20291;-88
2024/01/18 12:01:50;;;;;;;11.17;8.37;;;;;3.30;99756.00;;;;9830492;29;20259;-87
2024/01/18 12:06:51;;;;;;;14.13;8.00;;;;;3.00;99750.00;;;;9829494;30;20431;-88
2024/01/18 12:11:55;;;;;;;15.97;9.50;;;;;4.60;99757.00;;;;9854108;29;20262;-88
2024/01/18 12:16:56;;;;;;;12.60;7.80;;;;;5.00;99767.00;;;;9804046;29;20325;-89
2024/01/18 12:22:01;;;;;;;15.63;8.13;;;;;5.30;99775.00;;;;9816467;29;20316;-87
2024/01/18 12:27:04;;;;;;;9.43;6.90;;;;;5.60;99785.00;;;;9853602;29;20244;-86
2024/01/18 12:32:07;;;;;;;11.30;6.97;;;;;5.80;99779.00;;;;9820499;29;20239;-85
2024/01/18 12:37:11;;;;;;;10.87;6.57;;;;;5.40;99794.00;;;;9815115;29;20315;-85
2024/01/18 12:42:12;;;;;;;12.00;5.77;;;;;5.50;99788.00;;;;9837745;29;20319;-84
2024/01/18 12:47:13;;;;;;;10.00;6.40;;;;;5.50;99801.00;;;;9828026;30;20857;-84
2024/01/18 12:52:15;;;;;;;9.03;4.97;;;;;5.40;99801.00;;;;9813628;29;20243;-83
2024/01/18 12:57:17;;;;;;;9.27;4.90;;;;;5.30;99805.00;;;;9798870;29;20771;-83
2024/01/18 13:02:25;;;;;;;7.70;3.97;;;;;5.20;99810.00;;;;9801477;30;20245;-83
2024/01/18 13:07:26;;;;;;;9.57;4.37;;;;;5.10;99808.00;;;;9774667;30;20369;-81
2024/01/18 13:12:29;;;;;;;10.13;3.70;;;;;5.10;99826.00;;;;9786803;30;20245;-86
2024/01/18 13:17:30;;;;;;;6.40;3.53;;;;;5.00;99836.00;;;;9778294;30;20266;-87
2024/01/18 13:22:31;;;;;;;6.97;2.77;;;;;4.90;99846.00;;;;9797129;30;20626;-85
2024/01/18 13:27:32;;;;;;;6.93;3.27;;;;;4.70;99854.00;;;;9785550;30;20575;-86
2024/01/18 13:32:33;;;;;;;7.07;2.73;;;;;4.70;99869.00;;;;9799710;30;20708;-86
2024/01/18 13:37:35;;;;;;;8.23;2.80;;;;;4.60;99872.00;;;;9787566;30;20233;-86
2024/01/18 13:42:36;;;;;;;6.50;3.33;;;;;4.60;99877.00;;;;9792082;30;20323;-85
2024/01/18 13:47:38;;;;;;;4.87;2.40;;;;;4.40;99879.00;;;;9783469;30;20241;-86
2024/01/18 13:52:39;;;;;;;3.80;1.97;;;;;4.20;99899.00;;;;9792200;30;20265;-89
2024/01/18 13:57:41;;;;;;;11.43;2.90;;;;;4.20;99888.00;;;;9792023;30;20918;-89
2024/01/18 14:02:44;;;;;;;7.07;2.90;;;;;4.30;99901.00;;;;9790523;30;20244;-87
2024/01/18 14:07:45;;;;;;;3.90;1.93;;;;;4.40;99906.00;;;;9801665;30;20248;-88
2024/01/18 14:12:46;;;;;;;8.53;3.47;;;;;4.60;99925.00;;;;9786000;30;20763;-88
2024/01/18 14:17:47;;;;;;;2.57;1.37;;;;;5.10;99931.00;;;;9776564;30;20233;-88
2024/01/18 14:22:49;;;;;;;4.20;1.60;;;;;5.10;99937.00;;;;10257041;24;20291;-89
2024/01/18 14:28:04;;;;;;;2.40;1.07;;;;;4.60;99955.00;;;;10292342;24;20707;-88
2024/01/18 14:39:33;;;;;;;6.90;2.07;;;;;3.40;99984.00;;;;3743437;24;20396;-87
2024/01/18 14:45:07;;;;;;;4.83;1.90;;;;;3.10;99994.00;;;;6510157;24;20442;-89
2024/01/18 14:50:08;;;;;;;5.93;2.10;;;;;2.80;100010.00;;;;9898550;29;20297;-86
2024/01/18 15:01:16;;;;;;;2.30;1.73;;;;;2.60;100025.00;;;;10311215;24;20266;-86
2024/01/18 15:06:17;;;;;;;9.10;3.50;;;;;2.60;100050.00;;;;9929955;24;20248;-84
2024/01/18 15:11:18;;;;;;;2.87;1.63;;;;;2.40;100059.00;;;;9866109;29;20235;-87
2024/01/18 15:16:20;;;;;;;13.67;4.90;;;;;2.20;100062.00;;;;9910331;24;20225;-87
2024/01/18 15:21:21;;;;;;;2.77;2.07;;;;;2.20;100076.00;;;;9824574;29;20239;-86
2024/01/18 15:26:22;;;;;;;7.60;3.20;;;;;2.00;100074.00;;;;9844005;29;20292;-86
2024/01/18 15:31:31;;;;;;;3.97;2.13;;;;;1.80;100086.00;;;;9811813;29;20294;-81
2024/01/18 15:36:33;;;;;;;6.83;3.07;;;;;1.60;100097.00;;;;9830346;30;20298;-80
2024/01/18 15:41:34;;;;;;;7.53;3.30;;;;;1.50;100107.00;;;;9823501;29;20243;-81
2024/01/18 15:46:38;;;;;;;2.77;2.37;;;;;1.40;100124.00;;;;9806592;29;20754;-79
2024/01/18 15:51:39;;;;;;;3.40;2.00;;;;;1.40;100142.00;;;;9806670;29;20290;-83
2024/01/18 15:56:40;;;;;;;6.80;3.67;;;;;1.40;100148.00;;;;9838345;29;20242;-80
2024/01/18 16:01:49;;;;;;;9.17;4.63;;;;;1.40;100159.00;;;;9800978;29;20270;-83
2024/01/18 16:06:50;;;;;;;4.17;2.80;;;;;1.40;100176.00;;;;9809924;29;20269;-80
2024/01/18 16:11:52;;;;;;;6.40;3.60;;;;;1.20;100178.00;;;;9843143;29;20228;-80
2024/01/18 16:16:53;;;;;;;4.57;3.00;;;;;1.00;100188.00;;;;9798160;29;20227;-80
2024/01/18 16:21:54;;;;;;;9.77;4.00;;;;;0.80;100193.00;;;;9830788;29;20238;-80
2024/01/18 16:26:55;;;;;;;5.67;2.80;;;;;0.70;100211.00;;;;9815220;29;20261;-80
2024/01/18 16:31:58;;;;;;;10.00;4.27;;;;;0.50;100223.00;;;;9808618;29;20321;-80
2024/01/18 16:36:59;;;;;;;10.47;4.10;;;;;0.30;100233.00;;;;9808813;29;20225;-80
2024/01/18 16:42:02;;;;;;;7.67;4.93;;;;;0.20;100246.00;;;;9815852;29;20655;-82
2024/01/18 16:47:03;;;;;;;14.80;4.70;;;;;0.10;100246.00;;;;9812062;29;20232;-82
2024/01/18 16:52:04;;;;;;;13.23;6.43;;;;;0.00;100258.00;;;;9820861;29;20244;-81
2024/01/18 16:57:06;;;;;;;11.13;5.90;;;;;0.00;100258.00;;;;9807461;30;20237;-80
2024/01/18 17:02:14;;;;;;;10.43;5.77;;;;;0.00;100272.00;;;;9782003;30;20262;-80
2024/01/18 17:07:15;;;;;;;7.03;5.07;;;;;-0.10;100285.00;;;;9808200;29;20821;-81
2024/01/18 17:12:17;;;;;;;15.00;6.33;;;;;-0.20;100282.00;;;;9787188;30;20237;-80
2024/01/18 17:17:18;;;;;;;7.60;4.60;;;;;-0.20;100298.00;;;;9774781;30;20233;-80
2024/01/18 17:22:19;;;;;;;10.03;5.00;;;;;-0.20;100315.00;;;;9793731;29;20992;-80
2024/01/18 17:27:21;;;;;;;7.23;4.33;;;;;-0.20;100322.00;;;;9791936;30;20245;-80
2024/01/18 17:32:22;;;;;;;8.33;5.17;;;;;-0.30;100336.00;;;;9789442;30;20830;-80
2024/01/18 17:37:23;;;;;;;12.50;5.23;;;;;-0.30;100342.00;;;;9789210;30;20369;-80
2024/01/18 17:42:24;;;;;;;9.63;5.30;;;;;-0.40;100355.00;;;;9763222;30;20240;-80
2024/01/18 17:47:25;;;;;;;11.13;5.57;;;;;-0.50;100364.00;;;;9793788;30;20252;-80
2024/01/18 17:52:27;;;;;;;11.67;6.60;;;;;-0.60;100370.00;;;;9806375;29;20760;-80
2024/01/18 17:57:30;;;;;;;12.80;6.67;;;;;-0.60;100369.00;;;;9794086;30;20236;-81
2024/01/18 18:02:33;;;;;;;11.73;6.73;;;;;-0.60;100374.00;;;;9794167;30;20244;-80
2024/01/18 18:07:34;;;;;;;10.90;7.30;;;;;-0.70;100384.00;;;;9793749;30;20988;-80
2024/01/18 18:12:35;;;;;;;11.60;7.70;;;;;-0.70;100396.00;;;;9801182;30;20224;-81
2024/01/18 18:17:36;;;;;;;14.37;7.73;;;;;-0.60;100397.00;;;;9793590;30;20315;-80
2024/01/18 18:22:38;;;;;;;23.87;12.67;;;;;-0.60;100413.00;;;;9806841;30;21001;-80
2024/01/18 18:27:39;;;;;;;16.87;8.97;;;;;-0.60;100432.00;;;;9809880;29;20948;-80
2024/01/18 18:32:40;;;;;;;20.33;11.63;;;;;-0.60;100446.00;;;;9811614;29;20252;-80
2024/01/18 18:37:41;;;;;;;13.50;9.40;;;;;-0.70;100453.00;;;;9812741;30;20240;-81
2024/01/18 18:42:42;;;;;;;10.77;8.23;;;;;-0.80;100460.00;;;;9778048;30;20299;-81
2024/01/18 18:47:44;;;;;;;12.53;8.60;;;;;-0.90;100475.00;;;;9795624;30;20316;-81
2024/01/18 18:52:46;;;;;;;12.60;8.60;;;;;-0.90;100483.00;;;;9809337;30;20245;-80
2024/01/18 18:57:53;;;;;;;11.23;8.53;;;;;-1.00;100498.00;;;;9779422;30;20232;-82
2024/01/18 19:02:57;;;;;;;12.23;7.73;;;;;-1.10;100513.00;;;;9770229;30;20344;-81
2024/01/18 19:07:59;;;;;;;12.03;8.83;;;;;-1.20;100526.00;;;;9791186;30;20697;-81
2024/01/18 19:13:00;;;;;;;13.70;9.40;;;;;-1.30;100536.00;;;;9776510;30;20286;-82
2024/01/18 19:18:02;;;;;;;13.07;9.00;;;;;-1.30;100539.00;;;;9791165;30;20264;-81
2024/01/18 19:23:03;;;;;;;13.73;8.57;;;;;-1.40;100552.00;;;;9800653;29;20233;-84
2024/01/18 19:28:05;;;;;;;14.93;10.10;;;;;-1.40;100559.00;;;;9789823;30;20249;-81
2024/01/18 19:33:06;;;;;;;14.03;10.07;;;;;-1.40;100566.00;;;;9789115;30;20778;-80
2024/01/18 19:38:07;;;;;;;16.07;9.70;;;;;-1.50;100579.00;;;;9806106;29;20248;-81
2024/01/18 19:43:08;;;;;;;13.80;9.60;;;;;-1.50;100588.00;;;;9774603;30;20278;-82
2024/01/18 19:48:09;;;;;;;12.80;9.33;;;;;-1.50;100597.00;;;;9789867;30;21257;-84
2024/01/18 19:53:11;;;;;;;14.23;9.87;;;;;-1.50;100611.00;;;;9805382;30;20263;-81
2024/01/18 19:58:12;;;;;;;18.73;9.63;;;;;-1.50;100617.00;;;;9774125;30;20246;-81
2024/01/18 20:03:13;;;;;;;16.17;11.33;;;;;-1.50;100635.00;;;;9799938;30;20229;-81
2024/01/18 20:08:15;;;;;;;17.23;10.87;;;;;-1.50;100640.00;;;;9775604;30;20228;-81
2024/01/18 20:13:16;;;;;;;20.20;11.43;;;;;-1.40;100648.00;;;;9789997;30;20321;-79
2024/01/18 20:18:17;;;;;;;19.63;11.17;;;;;-1.30;100669.00;;;;9759048;30;20787;-81
2024/01/18 20:23:19;;;;;;;17.17;10.40;;;;;-1.40;100667.00;;;;9805569;29;20260;-90
2024/01/18 20:28:20;;;;;;;18.33;11.43;;;;;-1.50;100667.00;;;;9795941;30;20233;-89
2024/01/18 20:33:21;;;;;;;12.87;10.13;;;;;-1.40;100682.00;;;;9799474;30;20380;-89
2024/01/18 20:38:23;;;;;;;17.77;11.97;;;;;-1.40;100692.00;;;;9787638;30;20324;-89
2024/01/18 20:43:24;;;;;;;20.13;11.47;;;;;-1.40;100712.00;;;;9814510;30;20331;-87
2024/01/18 20:48:25;;;;;;;22.87;13.53;;;;;-1.30;100706.00;;;;9786334;30;20244;-90
2024/01/18 20:53:28;;;;;;;20.03;13.37;;;;;-1.20;100708.00;;;;9781719;30;20236;-88
2024/01/18 20:58:35;;;;;;;18.20;11.93;;;;;-1.20;100723.00;;;;9801507;30;20784;-88
2024/01/18 21:03:37;;;;;;;18.90;11.27;;;;;-1.30;100721.00;;;;9803071;30;20228;-89
2024/01/18 21:08:38;;;;;;;24.27;13.10;;;;;-1.40;100736.00;;;;9785155;30;20287;-90
2024/01/18 21:13:39;;;;;;;22.43;13.17;;;;;-1.40;100747.00;;;;9800711;30;20232;-90
2024/01/18 21:18:40;;;;;;;17.93;11.73;;;;;-1.40;100756.00;;;;9766499;30;20331;-87
2024/01/18 21:23:42;;;;;;;20.10;13.03;;;;;-1.50;100764.00;;;;9781406;30;20346;-89
2024/01/18 21:28:43;;;;;;;20.10;12.53;;;;;-1.50;100771.00;;;;9785844;30;20245;-88
2024/01/18 21:33:45;;;;;;;19.97;12.23;;;;;-1.50;100784.00;;;;9793966;30;20247;-84
2024/01/18 21:38:47;;;;;;;20.03;12.83;;;;;-1.50;100788.00;;;;9777656;30;20240;-83
2024/01/18 21:43:48;;;;;;;20.10;13.10;;;;;-1.60;100794.00;;;;9803289;30;20240;-84
2024/01/18 21:48:49;;;;;;;16.20;12.13;;;;;-1.70;100782.00;;;;9793983;30;20240;-84
2024/01/18 21:53:52;;;;;;;17.40;11.47;;;;;-1.70;100809.00;;;;9759387;30;20260;-84
2024/01/18 21:58:53;;;;;;;19.00;12.73;;;;;-1.80;100807.00;;;;9785147;30;20243;-84
2024/01/18 22:03:55;;;;;;;20.47;12.10;;;;;-1.90;100808.00;;;;9790059;30;20237;-84
2024/01/18 22:08:56;;;;;;;24.50;14.47;;;;;-2.00;100821.00;;;;9762750;29;20875;-85
2024/01/18 22:13:58;;;;;;;23.93;13.87;;;;;-2.00;100819.00;;;;9804594;29;20236;-85
2024/01/18 22:19:02;;;;;;;22.30;14.40;;;;;-2.10;100832.00;;;;9771543;30;20241;-85
2024/01/18 22:24:03;;;;;;;29.83;15.73;;;;;-2.10;100829.00;;;;9790828;30;20356;-86
2024/01/18 22:29:05;;;;;;;22.97;13.97;;;;;-2.10;100852.00;;;;9779848;30;20248;-86
2024/01/18 22:34:06;;;;;;;27.33;16.53;;;;;-2.20;100853.00;;;;9779757;30;20859;-85
2024/01/18 22:39:09;;;;;;;26.07;15.37;;;;;-2.10;100858.00;;;;9785347;30;20232;-86
2024/01/18 22:44:10;;;;;;;20.13;13.90;;;;;-2.20;100860.00;;;;9786314;30;20529;-85
2024/01/18 22:49:11;;;;;;;25.27;15.00;;;;;-2.10;100877.00;;;;9795359;30;20991;-85
2024/01/18 22:54:12;;;;;;;19.50;13.30;;;;;-2.20;100879.00;;;;9796840;30;20244;-85
2024/01/18 22:59:18;;;;;;;24.50;14.30;;;;;-2.20;100893.00;;;;9766963;30;20244;-84
2024/01/18 23:04:23;;;;;;;19.03;13.80;;;;;-2.30;100893.00;;;;9800229;30;20239;-85
2024/01/18 23:09:24;;;;;;;22.23;13.53;;;;;-2.30;100908.00;;;;9806080;30;20319;-84
2024/01/18 23:14:25;;;;;;;22.23;13.97;;;;;-2.30;100912.00;;;;9787787;30;20675;-83
2024/01/18 23:19:26;;;;;;;19.30;12.90;;;;;-2.40;100905.00;;;;9778143;30;20272;-85
2024/01/18 23:24:28;;;;;;;25.00;13.70;;;;;-2.40;100916.00;;;;9783696;30;20236;-83
2024/01/18 23:29:29;;;;;;;20.80;12.13;;;;;-2.50;100913.00;;;;9784288;30;20236;-84
2024/01/18 23:34:30;;;;;;;24.03;12.13;;;;;-2.50;100918.00;;;;9784828;30;20233;-84
2024/01/18 23:39:32;;;;;;;24.33;15.33;;;;;-2.50;100924.00;;;;9803259;30;20248;-83
2024/01/18 23:44:35;;;;;;;27.27;16.17;;;;;-2.40;100925.00;;;;9781837;29;20666;-84
2024/01/18 23:49:36;;;;;;;23.30;15.33;;;;;-2.30;100918.00;;;;9794512;30;20448;-84
2024/01/18 23:54:37;;;;;;;24.77;15.20;;;;;-2.20;100913.00;;;;9782433;30;20240;-84
2024/01/18 23:59:39;;;;;;;28.23;16.03;;;;;-2.10;100922.00;;;;9796315;29;20697;-84
